Flight Track Log - Related Links

Times and Time Zones

All times are in EDT time to prevent confusion due to time zone crossing. See the ASQ5740 flight status page for this flight to view local times or setup timezone preferences in your user account.

Time Position Orientation Groundspeed Altitude Reporting Facility
EDT Latitude Longitude Course Direction KTS MPH feet Rate Location/Type
Sun 01:41:07 PM 38.9167 -77.5333 226° Southwest 198 228 2,500  Level Potomac TRACON
Sun 01:42:07 PM 38.8500 -77.5667 201° Southwest 250 288 4,800 2,284 Climbing Potomac TRACON
Sun 01:43:00 PM 38.6596 -77.8234 226° Southwest  Level Estimated
Sun 01:44:00 PM 38.5875 -77.9138 238° Southwest  Level Estimated
Sun 01:44:24 PM 38.6947 -77.5758 183° South 270 311 10,000  Level Washington Center
Sun 01:45:00 PM 38.5153 -78.0040 233° Southwest  Level Estimated
Sun 01:45:21 PM 38.6094 -77.5736 179° South 288 331 10,900  Level Washington Center
Sun 01:46:00 PM 38.4430 -78.0940 226° Southwest  Level Estimated
Sun 01:46:22 PM 38.5253 -77.6111 199° South 309 356 12,200  Level Washington Center
Sun 01:47:22 PM 38.4469 -77.6914 219° Southwest 333 383 13,200 1,041 Climbing Washington Center
Sun 01:48:23 PM 38.3639 -77.7789 220° Southwest 349 402 14,300 1,091 Climbing Washington Center
Sun 01:49:23 PM 38.2811 -77.8664 220° Southwest 369 425 15,400 1,091 Climbing Washington Center
Sun 01:50:24 PM 38.2042 -77.9514 221° Southwest 374 430 16,500 1,140 Climbing Washington Center
Sun 01:51:24 PM 38.1233 -78.0358 219° Southwest 374 430 17,700 1,017 Climbing Washington Center
Sun 01:52:22 PM 38.0444 -78.1203 220° Southwest 374 430 18,500 966 Climbing Washington Center
Sun 01:53:22 PM 37.9778 -78.2103 227° Southwest 368 423 19,600 885 Climbing Washington Center
Sun 01:54:24 PM 37.9175 -78.3031 231° Southwest 368 423 20,300 590 Climbing Washington Center
Sun 01:55:24 PM 37.8464 -78.4003 227° Southwest 379 436 20,800 508 Climbing Washington Center
Sun 01:56:22 PM 37.7750 -78.5028 229° Southwest 384 442 21,300 504 Climbing Washington Center
Sun 01:57:23 PM 37.7036 -78.6050 229° Southwest 384 442 21,800 492 Climbing Washington Center
Sun 01:58:24 PM 37.6236 -78.7172 228° Southwest 394 453 22,300 496 Climbing Washington Center
Sun 01:59:24 PM 37.5500 -78.8189 228° Southwest 394 453 22,800 508 Climbing Washington Center
Sun 02:00:22 PM 37.4764 -78.9231 228° Southwest 401 461 23,300 508 Climbing Washington Center
Sun 02:01:22 PM 37.4003 -79.0297 228° Southwest 401 461 23,800 496 Climbing Washington Center
Sun 02:02:23 PM 37.3261 -79.1361 229° Southwest 401 461 24,300 496 Climbing Washington Center
Sun 02:03:23 PM 37.2586 -79.2319 229° Southwest 407 468 24,800 504 Climbing Washington Center
Sun 02:04:22 PM 37.1825 -79.3381 228° Southwest 407 468 25,300 504 Climbing Washington Center
Sun 02:05:22 PM 37.1100 -79.4464 230° Southwest 407 468 25,800 347 Climbing Washington Center
Sun 02:06:23 PM 37.0378 -79.5547 230° Southwest 412 474 26,000 99 Climbing Washington Center
Sun 02:07:23 PM 36.9631 -79.6653 230° Southwest 418 481 26,000  Level Washington Center
Sun 02:08:23 PM 36.8817 -79.7881 230° Southwest 418 481 26,000  Level Washington Center
Sun 02:10:09 PM 36.7422 -79.9872 229° Southwest 446 513 26,000  Level Atlanta Center
Sun 02:11:09 PM 36.6644 -80.1000 229° Southwest 446 513 26,000  Level Atlanta Center
Sun 02:12:09 PM 36.5867 -80.2122 229° Southwest 446 513 26,000  Level Atlanta Center
Sun 02:13:09 PM 36.5017 -80.2886 216° Southwest 446 513 26,000 -200 Level Atlanta Center
Sun 02:14:09 PM 36.3842 -80.3356 198° South 426 490 25,600 -450 Descending Atlanta Center
Sun 02:15:09 PM 36.2664 -80.3744 195° South 438 504 25,100 -500 Descending Atlanta Center
Sun 02:16:09 PM 36.1425 -80.4161 195° South 452 520 24,600 -1,000 Descending Atlanta Center
Sun 02:17:09 PM 36.0042 -80.4633 195° South 467 537 23,100 -1,500 Descending Atlanta Center
Sun 02:18:09 PM 35.8908 -80.5119 199° South 454 522 21,600 -1,450 Descending Atlanta Center
Sun 02:19:09 PM 35.8122 -80.6150 227° Southwest 418 481 20,200 -800 Descending Atlanta Center
Sun 02:20:09 PM 35.7458 -80.7022 227° Southwest 406 467 20,000 -100 Descending Atlanta Center
Sun 02:21:09 PM 35.6736 -80.8050 229° Southwest 399 459 20,000  Level Atlanta Center
Sun 02:21:33 PM 35.6417 -80.8572 233° Southwest 394 453 20,000 -100 Level Atlanta Center
Sun 02:22:09 PM 35.6011 -80.9075 225° Southwest 399 459 19,900 -324 Descending Atlanta Center
Sun 02:22:10 PM 35.5972 -80.9178 245° Southwest 396 456 19,800 -2,200 Descending Atlanta Center
Sun 02:23:09 PM 35.5286 -81.0072 227° Southwest 399 459 17,700 -2,557 Descending Atlanta Center
Sun 02:23:11 PM 35.5186 -81.0278 239° Southwest 397 457 17,200 -2,600 Descending Atlanta Center
Sun 02:24:09 PM 35.4564 -81.1244 232° Southwest 393 452 15,100 -2,459 Descending Atlanta Center
Sun 02:24:12 PM 35.4564 -81.1297 270° West 370 426 14,700 -1,700 Descending Atlanta Center
Sun 02:25:09 PM 35.4022 -81.2258 235° Southwest 372 428 13,400 -1,500 Descending Atlanta Center
Sun 02:25:12 PM 35.4003 -81.2336 253° West 355 409 13,200 -1,300 Descending Atlanta Center
Sun 02:26:09 PM 35.3506 -81.3319 238° Southwest 365 420 12,100 -1,180 Descending Atlanta Center
Sun 02:26:13 PM 35.3483 -81.3347 226° Southwest 363 418 12,000 -400 Descending Atlanta Center
Sun 02:27:09 PM 35.2964 -81.4356 238° Southwest 365 420 11,700 -672 Descending Atlanta Center
Sun 02:28:09 PM 35.2422 -81.5364 237° Southwest 365 420 10,700 -850 Descending Atlanta Center
Sun 02:29:09 PM 35.1917 -81.6244 235° Southwest 359 413 10,000 -400 Descending Atlanta Center
Sun 02:30:09 PM 35.1350 -81.7097 231° Southwest 338 389 9,900 -50 Descending Atlanta Center
Sun 02:31:09 PM 35.0800 -81.7925 231° Southwest 326 375 9,900 -550 Level Atlanta Center
Sun 02:32:09 PM 35.0333 -81.8622 231° Southwest 295 339 8,800 -1,350 Descending Atlanta Center
Sun 02:33:09 PM 34.9867 -81.9344 232° Southwest 270 311 7,200 -1,500 Descending Atlanta Center
Sun 02:34:09 PM 34.9375 -81.9917 224° Southwest 253 291 5,800 -1,450 Descending Atlanta Center
Sun 02:35:09 PM 34.8800 -82.0511 220° Southwest 253 291 4,300 -1,500 Descending Atlanta Center
Sun 02:36:09 PM 34.8267 -82.1106 222° Southwest 258 297 2,800 -950 Descending Atlanta Center
Sun 02:37:09 PM 34.7753 -82.1625 220° Southwest 252 290 2,400 -150 Descending Atlanta Center
Sun 02:38:09 PM 34.7742 -82.2181 269° West 205 236 2,500  Climbing Atlanta Center
Sun 02:39:09 PM 34.8103 -82.2653 313° West 164 189 2,400 -150 Descending Atlanta Center
Sun 02:40:09 PM 34.8442 -82.2975 322° Northwest 156 180 2,200 8,800 Descending Atlanta Center
Sun 02:41:09 PM 34.8656 -82.3400 302° West 156 180 20,000 17,800 Climbing Atlanta Center

Login

Don't have an account? Register now (free) for customized features, flight alerts, and more!